Time;durP1;ratioP1;P1;durP2;ratioP2;P2;SDS_P1;SDS_P2;PMS_P1;PMS_P2;Temp;Humidity;BMP_temperature;BMP_pressure;BME280_temperature;BME280_humidity;BME280_pressure;Samples;Min_cycle;Max_cycle;Signal;HPM_P1;HPM_P2
2021/12/26 00:00:21;;;;;;;13.93;4.35;;;27.60;99.90;;;;;;5033724;28;20066;-68
2021/12/26 00:02:48;;;;;;;7.38;3.80;;;28.10;99.90;;;;;;5034083;28;20432;-67
2021/12/26 00:05:16;;;;;;;15.73;4.70;;;28.40;99.90;;;;;;5035276;28;20029;-68
2021/12/26 00:07:44;;;;;;;12.15;4.28;;;28.90;99.90;;;;;;5034868;28;20037;-67
2021/12/26 00:10:13;;;;;;;10.48;4.80;;;29.40;99.90;;;;;;5035028;28;20035;-74
2021/12/26 00:12:41;;;;;;;11.73;4.43;;;29.90;99.90;;;;;;5036333;28;20497;-74
2021/12/26 00:15:08;;;;;;;9.82;3.92;;;30.50;99.90;;;;;;5035186;28;20021;-68
2021/12/26 00:17:36;;;;;;;10.20;3.70;;;30.80;98.90;;;;;;5031858;28;20029;-68
2021/12/26 00:20:07;;;;;;;11.63;4.63;;;30.50;98.20;;;;;;5031297;28;20032;-74
2021/12/26 00:22:35;;;;;;;10.25;4.05;;;30.10;99.30;;;;;;5032091;28;20447;-68
2021/12/26 00:25:03;;;;;;;10.57;4.10;;;30.30;99.40;;;;;;5033205;28;20033;-74
2021/12/26 00:27:30;;;;;;;9.70;3.60;;;30.20;98.60;;;;;;5031968;28;20029;-68
2021/12/26 00:29:57;;;;;;;7.75;3.90;;;29.80;99.60;;;;;;5034169;28;20471;-67
2021/12/26 00:32:24;;;;;;;5.93;3.25;;;29.80;99.50;;;;;;5035779;28;20637;-66
2021/12/26 00:34:52;;;;;;;8.13;4.05;;;30.20;99.20;;;;;;5035779;28;20029;-67
2021/12/26 00:37:20;;;;;;;10.07;4.15;;;30.10;97.90;;;;;;5034440;28;20107;-67
2021/12/26 00:39:47;;;;;;;8.25;3.75;;;30.00;98.30;;;;;;5034862;28;20043;-68
2021/12/26 00:42:14;;;;;;;9.30;4.30;;;30.40;97.90;;;;;;5035938;28;20029;-75
2021/12/26 00:44:41;;;;;;;6.35;3.50;;;30.70;97.60;;;;;;5034194;28;20480;-68
2021/12/26 00:47:10;;;;;;;8.20;3.42;;;30.90;97.70;;;;;;5032278;28;20055;-70
2021/12/26 00:49:39;;;;;;;8.10;3.38;;;30.80;96.80;;;;;;5033003;28;20025;-67
2021/12/26 00:52:06;;;;;;;10.05;3.80;;;30.60;97.10;;;;;;5033456;28;20028;-68
2021/12/26 00:54:34;;;;;;;11.30;7.95;;;30.70;97.00;;;;;;5031473;28;20507;-69
2021/12/26 00:57:01;;;;;;;8.57;4.15;;;31.20;97.30;;;;;;5034694;28;20038;-75
2021/12/26 00:59:28;;;;;;;7.45;3.78;;;31.90;95.50;;;;;;5033662;28;20052;-74
2021/12/26 01:01:56;;;;;;;21.25;17.98;;;32.40;94.60;;;;;;5031911;28;20480;-69
2021/12/26 01:04:24;;;;;;;13.18;9.20;;;32.90;94.60;;;;;;5031260;28;20021;-68
2021/12/26 01:06:52;;;;;;;6.78;3.58;;;32.90;92.90;;;;;;5033210;28;20033;-68
2021/12/26 01:09:24;;;;;;;9.10;3.63;;;32.70;91.80;;;;;;5031556;28;20460;-74
2021/12/26 01:11:55;;;;;;;7.60;3.42;;;32.30;93.30;;;;;;5036224;28;20029;-68
2021/12/26 01:14:29;;;;;;;9.48;4.70;;;32.00;92.70;;;;;;5029855;28;20427;-68
2021/12/26 01:17:05;;;;;;;6.97;3.35;;;32.10;94.10;;;;;;5038180;28;20025;-74
2021/12/26 01:19:42;;;;;;;7.20;3.22;;;32.80;93.00;;;;;;5027541;28;20049;-67
2021/12/26 01:22:11;;;;;;;7.80;3.60;;;33.20;91.50;;;;;;5038976;28;20047;-67
2021/12/26 01:24:39;;;;;;;7.05;3.20;;;33.40;90.30;;;;;;5033763;28;20048;-69
2021/12/26 01:27:07;;;;;;;5.85;3.35;;;33.60;89.00;;;;;;5027713;28;20021;-67
2021/12/26 01:29:35;;;;;;;6.72;3.67;;;33.40;87.70;;;;;;4681076;28;9999770;-67
2021/12/26 01:32:03;;;;;;;6.38;2.83;;;33.50;87.60;;;;;;5026385;28;20037;-67
2021/12/26 01:34:30;;;;;;;6.05;3.55;;;33.30;89.50;;;;;;5030333;28;20322;-74
2021/12/26 01:36:57;;;;;;;7.10;3.10;;;32.90;88.50;;;;;;5032953;28;20024;-74
2021/12/26 01:39:25;;;;;;;5.05;3.13;;;32.60;90.30;;;;;;5031720;28;20056;-67
2021/12/26 01:41:53;;;;;;;7.78;3.55;;;32.20;90.30;;;;;;5035103;28;20021;-67
2021/12/26 01:44:21;;;;;;;6.45;3.78;;;31.70;90.40;;;;;;5034328;28;20033;-74
2021/12/26 01:46:49;;;;;;;7.40;3.60;;;31.30;92.40;;;;;;5028557;28;20037;-74
2021/12/26 01:49:22;;;;;;;6.93;3.30;;;31.30;92.00;;;;;;5028115;28;20391;-68
2021/12/26 01:51:51;;;;;;;8.88;3.85;;;31.10;92.90;;;;;;5040313;28;20037;-68
2021/12/26 01:54:36;;;;;;;6.00;3.22;;;31.20;92.60;;;;;;5032373;28;20036;-67
2021/12/26 01:57:07;;;;;;;6.22;3.00;;;31.40;91.50;;;;;;5038912;28;20033;-74
2021/12/26 01:59:34;;;;;;;7.35;3.53;;;31.40;91.40;;;;;;5028730;28;20022;-68
2021/12/26 02:02:03;;;;;;;6.63;2.83;;;31.70;90.80;;;;;;5045736;28;20082;-67
2021/12/26 02:04:30;;;;;;;5.97;3.10;;;32.00;90.00;;;;;;5029202;28;20030;-68
2021/12/26 02:06:59;;;;;;;6.03;2.83;;;32.10;88.40;;;;;;5035915;28;20033;-67
2021/12/26 02:09:26;;;;;;;6.97;3.50;;;32.40;90.20;;;;;;5028534;28;20061;-69
2021/12/26 02:11:54;;;;;;;6.50;3.00;;;33.10;88.70;;;;;;5039787;28;20433;-68
2021/12/26 02:14:21;;;;;;;7.05;3.13;;;33.60;87.10;;;;;;5035992;28;20601;-67
2021/12/26 02:16:49;;;;;;;8.15;2.80;;;34.00;85.00;;;;;;5035018;28;20072;-67
2021/12/26 02:19:16;;;;;;;6.20;3.10;;;33.50;85.30;;;;;;5028069;28;20022;-69
2021/12/26 02:29:45;;;;;;;7.10;2.80;;;33.30;83.70;;;;;;5032329;28;20028;-68
2021/12/26 02:32:14;;;;;;;7.03;3.60;;;32.70;86.70;;;;;;5037411;28;20037;-73
2021/12/26 02:34:42;;;;;;;6.57;2.75;;;31.90;90.40;;;;;;5024533;28;20087;-67
2021/12/26 02:37:09;;;;;;;8.32;3.33;;;31.80;90.20;;;;;;5034729;28;20055;-68
2021/12/26 02:39:36;;;;;;;7.05;3.28;;;31.80;90.70;;;;;;5036594;28;20058;-67
2021/12/26 02:42:04;;;;;;;8.20;3.53;;;31.70;91.10;;;;;;5030073;28;20086;-67
2021/12/26 02:44:31;;;;;;;4.30;2.90;;;31.50;90.90;;;;;;5032956;28;20052;-72
2021/12/26 02:46:58;;;;;;;5.40;2.65;;;31.40;92.40;;;;;;5033000;28;20032;-67
2021/12/26 02:49:26;;;;;;;9.70;2.90;;;31.20;91.80;;;;;;5023773;28;20029;-67
2021/12/26 02:51:54;;;;;;;5.60;2.78;;;31.10;91.60;;;;;;5035954;28;20029;-66
2021/12/26 02:54:25;;;;;;;6.18;2.78;;;30.50;92.80;;;;;;5038704;28;20526;-66
2021/12/26 02:56:53;;;;;;;12.43;4.40;;;30.40;92.90;;;;;;5028924;28;20025;-66
2021/12/26 02:59:20;;;;;;;6.70;3.47;;;30.20;94.10;;;;;;5025795;28;20025;-68
2021/12/26 03:01:47;;;;;;;8.02;3.20;;;29.90;94.10;;;;;;5024997;28;20384;-66
2021/12/26 03:04:14;;;;;;;6.05;2.88;;;29.50;94.80;;;;;;5024493;28;20392;-69
2021/12/26 03:09:08;;;;;;;5.15;2.83;;;29.00;96.10;;;;;;5024826;28;20026;-66
2021/12/26 03:11:38;;;;;;;5.30;2.90;;;28.70;96.60;;;;;;5036958;28;20417;-66
2021/12/26 03:14:06;;;;;;;6.13;3.22;;;28.50;97.00;;;;;;5024137;28;20641;-72
2021/12/26 03:16:33;;;;;;;5.72;3.08;;;28.20;97.90;;;;;;5023680;28;20025;-66
2021/12/26 03:19:01;;;;;;;5.80;3.22;;;27.90;98.80;;;;;;5023253;28;20024;-66
2021/12/26 03:21:29;;;;;;;7.80;3.03;;;27.70;99.70;;;;;;5023810;28;20435;-68
2021/12/26 03:23:57;;;;;;;5.18;3.20;;;27.40;99.90;;;;;;5022582;28;20483;-66
2021/12/26 03:26:24;;;;;;;6.95;2.95;;;27.20;99.90;;;;;;5023994;28;20041;-72
2021/12/26 03:28:51;;;;;;;6.18;2.65;;;26.90;99.90;;;;;;5022667;28;20032;-66
2021/12/26 03:31:18;;;;;;;5.85;3.15;;;26.80;99.90;;;;;;5027074;28;20031;-66
2021/12/26 03:33:46;;;;;;;7.55;3.10;;;26.70;99.90;;;;;;5034138;28;20037;-72
2021/12/26 03:36:13;;;;;;;7.72;3.03;;;26.60;99.90;;;;;;5036564;28;20036;-72
2021/12/26 03:38:40;;;;;;;6.50;3.67;;;26.60;99.90;;;;;;5028891;28;20034;-66
2021/12/26 03:41:07;;;;;;;6.95;3.10;;;26.60;99.90;;;;;;5030833;28;20619;-67
2021/12/26 03:43:34;;;;;;;9.65;3.20;;;26.60;99.90;;;;;;5035981;28;20021;-66
2021/12/26 03:46:01;;;;;;;8.18;3.45;;;26.50;99.90;;;;;;5028075;28;20051;-73
2021/12/26 03:48:29;;;;;;;7.03;3.33;;;26.40;99.90;;;;;;5035907;28;20515;-66
2021/12/26 03:50:58;;;;;;;7.22;2.97;;;26.20;99.90;;;;;;5035005;28;20250;-68
2021/12/26 03:53:25;;;;;;;6.50;3.70;;;26.20;99.90;;;;;;5028237;28;20033;-73
2021/12/26 03:55:53;;;;;;;8.57;3.35;;;26.20;99.90;;;;;;5032328;28;20090;-73
2021/12/26 03:58:20;;;;;;;9.20;3.13;;;26.30;99.90;;;;;;5030845;28;20072;-68
2021/12/26 04:00:49;;;;;;;9.80;3.22;;;26.20;99.90;;;;;;5032402;28;20029;-68
2021/12/26 04:03:16;;;;;;;9.18;3.10;;;26.00;99.90;;;;;;5038511;28;20028;-67
2021/12/26 04:05:43;;;;;;;6.60;3.40;;;25.90;99.90;;;;;;5034983;28;20075;-67
2021/12/26 04:08:10;;;;;;;6.38;2.90;;;25.70;99.90;;;;;;5036009;28;20104;-67
2021/12/26 04:10:37;;;;;;;4.90;3.00;;;25.70;99.90;;;;;;5033028;28;20466;-67
2021/12/26 04:13:06;;;;;;;7.28;3.50;;;25.60;99.90;;;;;;5033648;28;20029;-73
2021/12/26 04:15:33;;;;;;;7.88;2.92;;;25.60;99.90;;;;;;5034065;28;20025;-68
2021/12/26 04:18:01;;;;;;;7.63;3.85;;;25.70;99.90;;;;;;5035526;28;20559;-67
2021/12/26 04:20:29;;;;;;;7.72;3.20;;;25.80;99.90;;;;;;5032637;28;20361;-67
2021/12/26 04:22:58;;;;;;;6.60;3.05;;;25.90;99.90;;;;;;5025733;28;20025;-68
2021/12/26 04:25:27;;;;;;;7.97;3.03;;;26.10;99.90;;;;;;5025786;28;20032;-69
2021/12/26 04:27:54;;;;;;;11.05;3.80;;;26.10;99.90;;;;;;5023736;28;20026;-73
2021/12/26 04:30:23;;;;;;;7.28;2.90;;;26.00;99.90;;;;;;5027992;28;20077;-67
2021/12/26 04:32:50;;;;;;;5.45;2.85;;;26.00;99.90;;;;;;5025934;28;20440;-68
2021/12/26 04:35:19;;;;;;;7.63;3.25;;;26.10;99.90;;;;;;5020972;28;20021;-66
2021/12/26 04:37:46;;;;;;;7.45;2.83;;;26.10;99.90;;;;;;5020098;28;20358;-70
2021/12/26 04:40:15;;;;;;;6.82;3.00;;;26.10;99.90;;;;;;5030924;28;20029;-69
2021/12/26 04:42:45;;;;;;;9.02;3.03;;;26.20;99.90;;;;;;5025741;28;20027;-74
2021/12/26 04:45:13;;;;;;;8.93;3.63;;;26.30;99.90;;;;;;5026333;28;21099;-69
2021/12/26 04:47:41;;;;;;;5.88;2.90;;;26.40;99.90;;;;;;5025943;28;20124;-75
2021/12/26 04:50:15;;;;;;;7.13;3.88;;;26.50;99.90;;;;;;5025553;28;20128;-69
2021/12/26 04:52:44;;;;;;;5.25;2.65;;;26.70;99.90;;;;;;5030679;28;20029;-69
2021/12/26 04:55:13;;;;;;;4.35;2.80;;;27.30;99.90;;;;;;5025382;28;20160;-67
2021/12/26 04:57:41;;;;;;;6.57;3.30;;;27.90;99.90;;;;;;5028921;28;20032;-66
2021/12/26 05:00:10;;;;;;;8.70;3.25;;;28.30;99.90;;;;;;5025630;28;20096;-67
2021/12/26 05:02:39;;;;;;;8.10;3.53;;;28.90;99.90;;;;;;5026730;28;20029;-67
2021/12/26 05:05:08;;;;;;;7.53;2.83;;;29.00;99.90;;;;;;5026486;28;20063;-67
2021/12/26 05:07:36;;;;;;;7.38;3.03;;;29.40;99.90;;;;;;5026591;28;20039;-72
2021/12/26 05:10:04;;;;;;;6.60;3.65;;;29.10;99.90;;;;;;5033099;28;20026;-74
2021/12/26 05:12:31;;;;;;;7.80;3.65;;;29.50;99.90;;;;;;5026086;28;20076;-67
2021/12/26 05:15:01;;;;;;;6.03;3.47;;;29.40;99.80;;;;;;5026194;28;20445;-68
2021/12/26 05:17:30;;;;;;;9.65;4.03;;;28.80;99.90;;;;;;5030939;28;20080;-74
2021/12/26 05:19:57;;;;;;;10.30;4.78;;;28.10;99.90;;;;;;5028122;28;20498;-68
2021/12/26 05:22:25;;;;;;;10.88;4.40;;;27.90;99.90;;;;;;5036991;28;20437;-69
2021/12/26 05:24:52;;;;;;;8.77;3.95;;;27.70;99.90;;;;;;5031644;28;20034;-68
2021/12/26 05:27:19;;;;;;;9.73;4.63;;;27.30;99.90;;;;;;5028713;28;20029;-74
2021/12/26 05:29:46;;;;;;;9.40;4.47;;;27.10;99.90;;;;;;5025700;28;20041;-68
2021/12/26 05:32:13;;;;;;;13.80;4.85;;;26.50;99.90;;;;;;5027705;28;20504;-71
2021/12/26 05:34:40;;;;;;;10.07;4.68;;;26.20;99.90;;;;;;5016393;28;20029;-71
2021/12/26 05:37:07;;;;;;;12.48;5.15;;;26.00;99.90;;;;;;5028862;28;20108;-72
2021/12/26 05:39:35;;;;;;;12.23;4.47;;;25.80;99.90;;;;;;5029396;28;20523;-69
2021/12/26 05:42:02;;;;;;;10.10;4.70;;;25.70;99.90;;;;;;5032254;28;20036;-70
2021/12/26 05:44:29;;;;;;;13.27;5.05;;;25.60;99.90;;;;;;5042905;23;20147;-70
2021/12/26 05:46:57;;;;;;;12.88;5.30;;;25.40;99.90;;;;;;5053697;28;20029;-67
2021/12/26 05:49:24;;;;;;;13.20;4.97;;;25.30;99.90;;;;;;5050382;28;20085;-71
2021/12/26 05:51:51;;;;;;;11.90;5.30;;;25.30;99.90;;;;;;5056601;28;20029;-68
2021/12/26 05:54:18;;;;;;;17.25;6.38;;;25.20;99.90;;;;;;5054993;28;20025;-69
2021/12/26 05:56:45;;;;;;;13.90;5.03;;;25.00;99.90;;;;;;5050522;28;20116;-66
2021/12/26 05:59:12;;;;;;;11.48;5.25;;;24.90;99.90;;;;;;5057572;28;20364;-68
2021/12/26 06:01:39;;;;;;;17.42;5.88;;;24.90;99.90;;;;;;5053189;28;20021;-70
2021/12/26 06:04:06;;;;;;;12.05;5.22;;;24.90;99.90;;;;;;5051240;28;20072;-67
2021/12/26 06:06:33;;;;;;;10.10;4.88;;;24.90;99.90;;;;;;5052518;28;20543;-68
2021/12/26 06:09:00;;;;;;;14.20;5.60;;;24.70;99.90;;;;;;5055293;28;20387;-69
2021/12/26 06:11:27;;;;;;;13.73;6.45;;;24.60;99.90;;;;;;5054863;28;20450;-70
2021/12/26 06:13:54;;;;;;;14.98;7.20;;;24.50;99.90;;;;;;5061158;28;20701;-67
2021/12/26 06:16:22;;;;;;;15.23;5.45;;;24.30;99.90;;;;;;5054380;28;20025;-70
2021/12/26 06:18:49;;;;;;;16.40;6.57;;;24.10;99.90;;;;;;5061163;28;20534;-74
2021/12/26 06:21:16;;;;;;;17.98;7.57;;;23.90;99.90;;;;;;5059402;28;20020;-67
2021/12/26 06:23:50;;;;;;;13.55;6.07;;;23.90;99.90;;;;;;5057681;28;20108;-66
2021/12/26 06:26:18;;;;;;;14.75;6.38;;;23.60;99.90;;;;;;5054826;28;20040;-75
2021/12/26 06:28:46;;;;;;;14.77;5.80;;;23.30;99.90;;;;;;5055853;28;20147;-67
2021/12/26 06:31:13;;;;;;;14.38;6.65;;;23.20;99.90;;;;;;5059766;28;20024;-67
2021/12/26 06:33:41;;;;;;;12.40;5.90;;;23.20;99.90;;;;;;5064647;28;20174;-68
2021/12/26 06:36:09;;;;;;;10.93;6.72;;;23.10;99.90;;;;;;5057988;28;20411;-65
2021/12/26 06:38:38;;;;;;;12.82;7.15;;;23.00;99.90;;;;;;5058203;28;20558;-68
2021/12/26 06:41:06;;;;;;;15.07;9.38;;;22.90;99.90;;;;;;5063797;28;20025;-65
2021/12/26 06:43:35;;;;;;;9.43;7.93;;;22.80;99.90;;;;;;5053380;28;20071;-66
2021/12/26 06:46:02;;;;;;;13.10;8.50;;;22.60;99.90;;;;;;5059224;28;20048;-66
2021/12/26 06:48:29;;;;;;;10.10;7.88;;;22.60;99.90;;;;;;5062229;28;20574;-67
2021/12/26 06:50:57;;;;;;;10.73;9.48;;;22.50;99.90;;;;;;5061079;28;20028;-67
2021/12/26 06:53:24;;;;;;;11.70;9.20;;;22.30;99.90;;;;;;5054592;28;20037;-67
2021/12/26 06:55:51;;;;;;;11.55;9.60;;;22.30;99.90;;;;;;5053998;28;20454;-65
2021/12/26 06:58:19;;;;;;;9.30;8.32;;;22.40;99.90;;;;;;5060352;28;20083;-68
2021/12/26 07:00:47;;;;;;;8.65;7.35;;;22.40;99.90;;;;;;5056301;28;20039;-67
2021/12/26 07:03:14;;;;;;;6.05;5.45;;;22.40;99.90;;;;;;5058369;28;20029;-65
2021/12/26 07:05:42;;;;;;;5.28;4.25;;;22.40;99.90;;;;;;5051531;28;20033;-67
2021/12/26 07:08:09;;;;;;;5.22;3.88;;;22.40;99.90;;;;;;5059231;28;20025;-66
2021/12/26 07:10:36;;;;;;;5.30;4.18;;;22.30;99.90;;;;;;5061104;28;20064;-67
2021/12/26 07:13:04;;;;;;;4.63;4.05;;;22.40;99.90;;;;;;5058953;28;20024;-66
2021/12/26 07:15:31;;;;;;;4.00;3.20;;;22.40;99.90;;;;;;5059414;28;20533;-72
2021/12/26 07:17:58;;;;;;;9.48;5.93;;;22.50;99.90;;;;;;5058099;28;20032;-70
2021/12/26 07:20:25;;;;;;;3.78;2.65;;;22.50;99.90;;;;;;5055430;28;20071;-67
2021/12/26 07:22:52;;;;;;;4.28;1.90;;;22.50;99.90;;;;;;5065400;28;20089;-69
2021/12/26 07:25:19;;;;;;;3.72;2.10;;;22.30;99.90;;;;;;5061803;28;20025;-69
2021/12/26 07:27:46;;;;;;;3.38;2.05;;;22.20;99.90;;;;;;5047704;28;20032;-68
2021/12/26 07:30:13;;;;;;;3.13;1.70;;;22.20;99.90;;;;;;5055629;28;20033;-65
2021/12/26 07:32:41;;;;;;;1.48;1.20;;;22.10;99.90;;;;;;5054876;28;20056;-70
2021/12/26 07:35:09;;;;;;;4.97;1.58;;;22.20;99.90;;;;;;5053196;28;20083;-69
2021/12/26 07:37:36;;;;;;;2.63;1.23;;;22.00;99.90;;;;;;5056608;28;20569;-66
2021/12/26 07:40:05;;;;;;;1.27;1.08;;;22.00;99.90;;;;;;5058665;28;20028;-70
2021/12/26 07:42:32;;;;;;;1.02;0.73;;;22.00;99.90;;;;;;5057931;28;20025;-68
2021/12/26 07:45:00;;;;;;;2.20;0.47;;;21.90;99.90;;;;;;5061292;28;20053;-71
2021/12/26 07:47:27;;;;;;;1.15;0.60;;;21.80;99.90;;;;;;5061186;28;20550;-66
2021/12/26 07:49:54;;;;;;;1.65;0.90;;;21.70;99.90;;;;;;5051812;28;20025;-66
2021/12/26 07:52:26;;;;;;;0.73;0.45;;;21.70;99.90;;;;;;5061546;28;20166;-67
2021/12/26 07:54:53;;;;;;;1.20;0.50;;;21.60;99.90;;;;;;5056708;28;20020;-71
2021/12/26 07:57:20;;;;;;;0.30;0.30;;;21.50;99.90;;;;;;5058201;28;20029;-73
2021/12/26 07:59:47;;;;;;;0.70;0.47;;;21.50;99.90;;;;;;5052214;28;20253;-66
2021/12/26 08:02:19;;;;;;;0.55;0.40;;;21.40;99.90;;;;;;5052359;28;20103;-68
2021/12/26 08:04:48;;;;;;;0.77;0.40;;;21.40;99.90;;;;;;5051093;28;20051;-67
2021/12/26 08:07:15;;;;;;;0.60;0.50;;;21.40;99.90;;;;;;5050515;28;20086;-65
2021/12/26 08:09:42;;;;;;;0.30;0.30;;;21.30;99.90;;;;;;5055522;28;20112;-65
2021/12/26 08:12:10;;;;;;;1.05;0.52;;;21.30;99.90;;;;;;5047819;28;20483;-69
2021/12/26 08:14:37;;;;;;;0.35;0.30;;;21.20;99.90;;;;;;5053070;28;20559;-68
2021/12/26 08:17:04;;;;;;;0.75;0.43;;;21.20;99.90;;;;;;5051881;28;20025;-68
2021/12/26 08:19:31;;;;;;;0.68;0.50;;;21.20;99.90;;;;;;5054248;28;20024;-69
2021/12/26 08:21:58;;;;;;;0.80;0.50;;;21.20;99.90;;;;;;5050215;28;20036;-65
2021/12/26 08:24:26;;;;;;;0.40;0.40;;;21.20;99.90;;;;;;5052335;28;20113;-64
2021/12/26 08:26:54;;;;;;;0.88;0.50;;;21.20;99.90;;;;;;5041167;28;20020;-63
2021/12/26 08:29:23;;;;;;;1.50;0.60;;;21.30;99.90;;;;;;5052979;28;20131;-69
2021/12/26 08:31:56;;;;;;;1.10;0.60;;;21.20;99.90;;;;;;5047432;28;20021;-64
2021/12/26 08:34:23;;;;;;;4.90;3.40;;;21.20;99.90;;;;;;5050565;28;20079;-68
2021/12/26 08:37:03;;;;;;;2.22;1.55;;;21.10;99.90;;;;;;5044375;28;20020;-67
2021/12/26 08:39:39;;;;;;;0.45;0.40;;;21.00;99.90;;;;;;5049406;28;20108;-63
2021/12/26 08:42:08;;;;;;;0.63;0.57;;;20.90;99.90;;;;;;5047461;28;20137;-67
2021/12/26 08:44:36;;;;;;;1.10;0.90;;;20.90;99.90;;;;;;5048524;28;20091;-68
2021/12/26 08:47:06;;;;;;;1.33;0.68;;;20.80;99.90;;;;;;5045187;28;20090;-68
2021/12/26 08:49:33;;;;;;;0.85;0.80;;;20.80;99.90;;;;;;5048852;28;20027;-69
2021/12/26 08:52:00;;;;;;;1.27;1.10;;;20.80;99.90;;;;;;5051013;28;20187;-67
2021/12/26 08:54:29;;;;;;;1.92;0.75;;;20.80;99.90;;;;;;5046216;28;20025;-64
2021/12/26 08:56:56;;;;;;;2.70;1.00;;;20.70;99.90;;;;;;5043992;28;20025;-68
2021/12/26 08:59:24;;;;;;;2.25;1.00;;;20.70;99.90;;;;;;5049491;28;20021;-69
2021/12/26 09:01:51;;;;;;;2.90;1.35;;;20.70;99.90;;;;;;5050945;28;20525;-67
2021/12/26 09:04:19;;;;;;;3.58;1.25;;;20.70;99.90;;;;;;5057633;28;20320;-67
2021/12/26 09:06:46;;;;;;;2.58;1.23;;;20.60;99.90;;;;;;5049955;28;20415;-64
2021/12/26 09:09:13;;;;;;;2.80;0.90;;;20.60;99.90;;;;;;5048041;28;20546;-64
2021/12/26 09:11:40;;;;;;;2.95;1.00;;;20.60;99.90;;;;;;5050885;28;20102;-68
2021/12/26 09:14:07;;;;;;;6.18;1.67;;;20.60;99.90;;;;;;5051749;28;20028;-67
2021/12/26 09:16:35;;;;;;;4.95;1.38;;;20.50;99.90;;;;;;5052653;28;20338;-63
2021/12/26 09:19:04;;;;;;;3.60;1.50;;;20.50;99.90;;;;;;5053591;28;20542;-68
2021/12/26 09:21:32;;;;;;;2.55;1.20;;;20.40;99.90;;;;;;5051425;28;20024;-64
2021/12/26 09:23:59;;;;;;;4.60;1.15;;;20.30;99.90;;;;;;5048487;28;20573;-68
2021/12/26 09:26:26;;;;;;;5.95;1.63;;;20.30;99.90;;;;;;5048955;28;20403;-64
2021/12/26 09:28:53;;;;;;;3.92;1.30;;;20.20;99.90;;;;;;5049692;28;20039;-63
2021/12/26 09:31:20;;;;;;;5.57;1.35;;;20.20;99.90;;;;;;5056704;28;20614;-67
2021/12/26 09:33:47;;;;;;;5.97;1.42;;;20.30;99.90;;;;;;5049839;28;20024;-68
2021/12/26 09:36:14;;;;;;;6.00;1.77;;;20.40;99.90;;;;;;5046629;28;20020;-63
2021/12/26 09:38:41;;;;;;;2.95;1.13;;;20.40;99.90;;;;;;5049013;28;20033;-63
2021/12/26 09:41:09;;;;;;;11.50;1.88;;;20.40;99.90;;;;;;5055890;28;20028;-67
2021/12/26 09:43:36;;;;;;;4.93;1.60;;;20.30;99.90;;;;;;5053479;28;20028;-64
2021/12/26 09:46:03;;;;;;;6.72;1.50;;;20.30;99.90;;;;;;5055245;28;20131;-64
2021/12/26 09:48:30;;;;;;;5.22;1.50;;;20.30;99.90;;;;;;5054744;28;20603;-67
2021/12/26 09:50:57;;;;;;;4.63;1.33;;;20.20;99.90;;;;;;5054460;28;20526;-63
2021/12/26 09:53:24;;;;;;;8.10;1.48;;;20.20;99.90;;;;;;5059139;28;20024;-63
2021/12/26 09:55:52;;;;;;;5.70;1.50;;;20.20;99.90;;;;;;5051066;28;20028;-67
2021/12/26 09:58:20;;;;;;;5.38;2.22;;;20.20;99.90;;;;;;5052804;28;20074;-67
2021/12/26 10:00:48;;;;;;;4.35;1.52;;;20.20;99.90;;;;;;5059923;28;20067;-68
2021/12/26 10:03:17;;;;;;;5.40;1.88;;;20.20;99.90;;;;;;5050004;28;20518;-68
2021/12/26 10:06:02;;;;;;;6.65;2.00;;;20.20;99.90;;;;;;5047327;28;20136;-66
2021/12/26 10:08:32;;;;;;;8.68;2.20;;;20.30;99.90;;;;;;5052357;28;20041;-62
2021/12/26 10:11:16;;;;;;;6.68;1.52;;;20.30;99.90;;;;;;5056755;28;20560;-64
2021/12/26 10:13:56;;;;;;;3.60;1.23;;;20.30;99.90;;;;;;5060831;28;20031;-63
2021/12/26 10:16:28;;;;;;;6.85;2.00;;;20.40;99.90;;;;;;5063917;28;20032;-66
2021/12/26 10:18:56;;;;;;;6.63;1.45;;;20.40;99.90;;;;;;5059013;28;20124;-66
2021/12/26 10:21:41;;;;;;;5.95;1.52;;;20.40;99.90;;;;;;5052503;28;20035;-65
2021/12/26 10:24:13;;;;;;;7.07;1.55;;;20.40;99.90;;;;;;5052237;28;20029;-63
2021/12/26 10:26:44;;;;;;;9.60;1.37;;;20.40;99.90;;;;;;5056545;28;20024;-62
2021/12/26 10:29:23;;;;;;;5.85;1.85;;;20.40;99.90;;;;;;5058693;28;20053;-68
2021/12/26 10:32:29;;;;;;;4.93;1.33;;;20.40;99.90;;;;;;5061570;28;20043;-63
2021/12/26 10:34:57;;;;;;;9.15;1.98;;;20.40;99.90;;;;;;5048938;28;20048;-67
2021/12/26 10:37:28;;;;;;;7.75;2.22;;;20.40;99.90;;;;;;5053051;28;20317;-68
2021/12/26 10:40:00;;;;;;;8.77;1.90;;;20.40;99.90;;;;;;5055944;28;20021;-69
2021/12/26 10:42:31;;;;;;;6.20;1.88;;;20.40;99.90;;;;;;5056531;28;20039;-67
2021/12/26 10:45:09;;;;;;;8.43;1.80;;;20.40;99.90;;;;;;5054486;28;20418;-76
2021/12/26 10:47:38;;;;;;;4.30;1.58;;;20.40;99.90;;;;;;5053010;28;20060;-67
2021/12/26 10:50:11;;;;;;;6.68;1.42;;;20.40;99.90;;;;;;5057221;28;20111;-69
2021/12/26 10:52:39;;;;;;;;;;;20.40;99.90;;;;;;5053578;28;20052;-67
2021/12/26 10:55:15;;;;;;;6.40;1.42;;;20.50;99.90;;;;;;5056906;28;20395;-67
2021/12/26 10:57:48;;;;;;;6.47;1.60;;;20.40;99.90;;;;;;5056733;28;20023;-69
2021/12/26 11:00:31;;;;;;;4.80;1.27;;;20.40;99.90;;;;;;5059741;28;20482;-79
2021/12/26 11:03:04;;;;;;;6.05;1.50;;;20.30;99.90;;;;;;5054115;28;20177;-78
2021/12/26 11:05:42;;;;;;;6.80;1.80;;;20.30;99.90;;;;;;5047772;28;20041;-67
2021/12/26 11:08:11;;;;;;;5.55;1.73;;;20.30;99.90;;;;;;5049338;28;20029;-70
2021/12/26 11:10:51;;;;;;;7.68;1.75;;;20.20;99.90;;;;;;5057024;28;20024;-70
2021/12/26 11:13:22;;;;;;;6.28;2.15;;;20.20;99.90;;;;;;5049244;28;20543;-77
2021/12/26 11:15:54;;;;;;;8.65;2.30;;;20.10;99.90;;;;;;5050324;28;20137;-76
2021/12/26 11:18:21;;;;;;;8.55;2.45;;;20.10;99.90;;;;;;5055659;28;20016;-68
2021/12/26 11:20:53;;;;;;;6.70;2.20;;;20.00;99.90;;;;;;5053232;28;20031;-68
2021/12/26 11:23:24;;;;;;;7.13;2.30;;;20.00;99.90;;;;;;5046790;28;20029;-71
2021/12/26 11:26:06;;;;;;;5.35;1.92;;;20.00;99.90;;;;;;5054473;28;20024;-70
2021/12/26 11:28:42;;;;;;;7.50;2.03;;;19.90;99.90;;;;;;5043226;28;20498;-68
2021/12/26 11:31:12;;;;;;;4.72;2.55;;;19.90;99.90;;;;;;5056458;28;20024;-71
2021/12/26 11:33:40;;;;;;;5.88;1.98;;;19.90;99.90;;;;;;5055614;28;20036;-71
2021/12/26 11:36:10;;;;;;;5.53;1.73;;;19.80;99.90;;;;;;5054126;28;20032;-68
2021/12/26 11:38:38;;;;;;;7.88;2.53;;;19.80;99.90;;;;;;5051289;28;20025;-68
2021/12/26 11:41:13;;;;;;;7.55;2.40;;;19.90;99.90;;;;;;5064211;28;20489;-70
2021/12/26 11:43:52;;;;;;;4.25;2.58;;;19.90;99.90;;;;;;5054878;28;20119;-70
2021/12/26 11:46:40;;;;;;;5.05;2.55;;;19.90;99.90;;;;;;5055379;28;20408;-69
2021/12/26 11:49:43;;;;;;;4.93;2.25;;;19.90;99.90;;;;;;5063224;28;20024;-78
2021/12/26 11:52:50;;;;;;;8.13;2.50;;;19.90;99.90;;;;;;5055746;28;20036;-69
2021/12/26 11:55:28;;;;;;;5.97;1.70;;;19.90;99.90;;;;;;5061732;28;20020;-75
2021/12/26 11:58:22;;;;;;;4.40;2.45;;;19.80;99.90;;;;;;5069469;28;20055;-78
2021/12/26 12:00:55;;;;;;;5.43;2.28;;;19.70;99.90;;;;;;5062271;28;20060;-71
2021/12/26 12:03:23;;;;;;;4.70;2.10;;;19.70;99.90;;;;;;5063469;28;20076;-70
2021/12/26 12:05:52;;;;;;;3.75;1.77;;;19.70;99.90;;;;;;5055290;28;20553;-70
2021/12/26 12:08:31;;;;;;;7.47;2.35;;;19.70;99.90;;;;;;4356007;28;10000764;-70
2021/12/26 12:11:05;;;;;;;8.48;3.05;;;19.70;99.90;;;;;;5052107;28;20118;-68
2021/12/26 12:13:54;;;;;;;5.85;2.33;;;19.80;99.90;;;;;;5057239;28;20037;-69
2021/12/26 12:16:24;;;;;;;5.95;2.45;;;19.70;99.90;;;;;;5058131;28;20723;-64
2021/12/26 12:18:53;;;;;;;5.53;2.58;;;19.70;99.90;;;;;;5057450;28;20124;-65
2021/12/26 12:21:48;;;;;;;9.77;3.28;;;19.50;99.90;;;;;;5060118;28;20124;-65
2021/12/26 12:24:26;;;;;;;5.60;2.67;;;19.50;99.90;;;;;;5057127;28;20835;-72
2021/12/26 12:27:07;;;;;;;4.78;2.63;;;19.50;99.90;;;;;;5059591;28;20066;-71
2021/12/26 12:29:40;;;;;;;5.93;2.60;;;19.50;99.90;;;;;;5058056;28;20067;-68
2021/12/26 12:32:11;;;;;;;8.02;2.95;;;19.50;99.90;;;;;;5059995;28;20055;-69
2021/12/26 12:34:58;;;;;;;9.70;2.95;;;19.50;99.90;;;;;;5059092;28;20044;-66
2021/12/26 12:37:37;;;;;;;6.20;3.00;;;19.50;99.90;;;;;;5057510;28;20040;-70
2021/12/26 12:40:29;;;;;;;7.43;3.08;;;19.50;99.90;;;;;;5065465;28;20282;-66
2021/12/26 12:43:16;;;;;;;5.05;2.95;;;19.50;99.90;;;;;;5056702;28;20024;-66
2021/12/26 12:46:04;;;;;;;5.35;2.90;;;19.40;99.90;;;;;;5071410;28;20092;-71
2021/12/26 12:49:01;;;;;;;5.97;2.92;;;19.40;99.90;;;;;;5058999;28;20032;-65
2021/12/26 12:51:28;;;;;;;6.25;3.10;;;19.30;99.90;;;;;;5059399;28;20540;-66
2021/12/26 12:53:59;;;;;;;9.40;2.95;;;19.30;99.90;;;;;;5053300;28;20072;-70
2021/12/26 12:56:44;;;;;;;9.50;3.03;;;19.30;99.90;;;;;;5060001;28;20025;-71
2021/12/26 13:01:51;;;;;;;7.55;2.95;;;19.40;99.90;;;;;;5056600;28;20147;-71
2021/12/26 13:04:24;;;;;;;6.00;3.40;;;19.30;99.90;;;;;;5056648;28;20518;-66
2021/12/26 13:06:52;;;;;;;7.75;3.60;;;19.40;99.90;;;;;;5049831;28;20025;-65
2021/12/26 13:09:20;;;;;;;5.82;2.70;;;19.30;99.90;;;;;;5049899;28;20505;-65
2021/12/26 13:11:50;;;;;;;6.10;3.60;;;19.30;99.90;;;;;;5059798;28;20430;-71